createdAt,value
2023-04-16T00:01:19.165Z,50.69
2023-04-16T00:03:46.754Z,50.81
2023-04-16T00:06:14.569Z,50.17
2023-04-16T00:08:43.270Z,50.02
2023-04-16T00:11:10.454Z,50.05
2023-04-16T00:13:37.774Z,50.73
2023-04-16T00:16:05.576Z,50.87
2023-04-16T00:18:32.748Z,50.51
2023-04-16T00:20:59.911Z,50.90
2023-04-16T00:23:27.285Z,50.76
2023-04-16T00:25:55.793Z,50.51
2023-04-16T00:28:23.024Z,50.25
2023-04-16T00:30:50.281Z,50.27
2023-04-16T00:33:17.648Z,51.01
2023-04-16T00:35:45.967Z,50.91
2023-04-16T00:38:14.196Z,50.32
2023-04-16T00:40:41.246Z,50.92
2023-04-16T00:43:10.023Z,50.92
2023-04-16T00:45:37.225Z,51.14
2023-04-16T00:48:05.448Z,50.42
2023-04-16T00:50:33.754Z,50.79
2023-04-16T00:53:02.340Z,50.88
2023-04-16T00:55:29.907Z,50.78
2023-04-16T00:57:56.968Z,50.98
2023-04-16T01:00:25.710Z,50.65
2023-04-16T01:02:53.998Z,50.44
2023-04-16T01:05:21.628Z,51.03
2023-04-16T01:07:48.801Z,50.42
2023-04-16T01:10:15.827Z,50.00
2023-04-16T01:12:43.039Z,50.02
2023-04-16T01:15:11.190Z,50.34
2023-04-16T01:17:39.868Z,49.26
2023-04-16T01:20:07.590Z,48.78
2023-04-16T01:22:36.110Z,48.54
2023-04-16T01:25:03.433Z,48.99
2023-04-16T01:27:30.596Z,49.31
2023-04-16T01:29:57.687Z,49.55
2023-04-16T01:32:24.949Z,49.96
2023-04-16T01:34:52.214Z,49.77
2023-04-16T01:37:19.351Z,49.93
2023-04-16T01:39:47.831Z,50.13
2023-04-16T01:42:14.852Z,49.92
2023-04-16T01:44:41.952Z,49.87
2023-04-16T01:47:09.081Z,59.45
2023-04-16T01:49:36.252Z,58.30
2023-04-16T01:52:03.412Z,53.39
2023-04-16T01:54:30.833Z,52.61
2023-04-16T01:56:59.312Z,51.94
2023-04-16T01:59:26.356Z,51.55
2023-04-16T02:01:53.943Z,50.93
2023-04-16T02:04:21.171Z,51.94
2023-04-16T02:06:48.279Z,49.49
2023-04-16T02:09:15.520Z,48.73
2023-04-16T02:11:42.558Z,48.84
2023-04-16T02:14:11.032Z,47.56
2023-04-16T02:16:38.147Z,47.36
2023-04-16T02:19:05.391Z,46.57
2023-04-16T02:21:32.506Z,45.72
2023-04-16T02:23:59.584Z,46.22
2023-04-16T02:26:26.615Z,45.78
2023-04-16T02:28:53.690Z,45.57
2023-04-16T02:31:22.271Z,45.02
2023-04-16T02:33:49.485Z,44.88
2023-04-16T02:36:16.624Z,44.60
2023-04-16T02:38:43.686Z,44.68
2023-04-16T02:41:10.768Z,45.06
2023-04-16T02:43:38.128Z,44.88
2023-04-16T02:46:05.324Z,44.49
2023-04-16T02:48:33.931Z,43.89
2023-04-16T02:51:01.146Z,43.92
2023-04-16T02:53:28.285Z,44.65
2023-04-16T02:55:56.579Z,43.96
2023-04-16T02:58:25.422Z,43.77
2023-04-16T03:00:54.059Z,44.29
2023-04-16T03:03:21.818Z,43.62
2023-04-16T03:05:50.610Z,43.98
2023-04-16T03:08:17.785Z,43.54
2023-04-16T03:10:44.830Z,44.07
2023-04-16T03:13:11.990Z,43.91
2023-04-16T03:15:39.181Z,43.72
2023-04-16T03:18:06.237Z,43.52
2023-04-16T03:20:33.791Z,43.54
2023-04-16T03:23:02.503Z,44.18
2023-04-16T03:25:29.597Z,43.55
2023-04-16T03:27:56.842Z,43.12
2023-04-16T03:30:23.992Z,43.25
2023-04-16T03:32:51.101Z,43.44
2023-04-16T03:35:18.409Z,43.04
2023-04-16T03:37:45.471Z,43.17
2023-04-16T03:40:14.627Z,43.24
2023-04-16T03:42:41.715Z,43.77
2023-04-16T03:45:09.668Z,43.37
2023-04-16T03:47:36.897Z,43.83
2023-04-16T03:50:04.519Z,43.13
2023-04-16T03:52:31.910Z,43.48
2023-04-16T03:54:58.996Z,43.05
2023-04-16T03:57:27.524Z,43.47
2023-04-16T03:59:54.650Z,43.33
2023-04-16T04:02:21.860Z,42.86
2023-04-16T04:04:49.210Z,43.10
2023-04-16T04:07:16.631Z,43.56
2023-04-16T04:09:43.690Z,43.05
2023-04-16T04:12:10.770Z,43.90
2023-04-16T04:14:39.434Z,43.97
2023-04-16T04:17:06.760Z,43.31
2023-04-16T04:19:33.919Z,43.81
2023-04-16T04:22:01.031Z,43.79
2023-04-16T04:24:28.230Z,43.52
2023-04-16T04:26:55.436Z,43.47
2023-04-16T04:29:22.594Z,43.39
2023-04-16T04:31:51.445Z,43.17
2023-04-16T04:34:19.086Z,43.07
2023-04-16T04:36:46.162Z,42.82
2023-04-16T04:39:13.509Z,43.20
2023-04-16T04:41:40.615Z,43.92
2023-04-16T04:44:07.928Z,44.13
2023-04-16T04:46:35.119Z,43.88
2023-04-16T04:49:03.827Z,44.23
2023-04-16T04:51:30.977Z,43.95
2023-04-16T04:53:58.430Z,43.92
2023-04-16T04:56:25.468Z,44.01
2023-04-16T04:58:52.854Z,43.71
2023-04-16T05:01:20.123Z,43.88
2023-04-16T05:03:47.426Z,43.97
2023-04-16T05:06:16.749Z,43.63
2023-04-16T05:08:43.889Z,43.42
2023-04-16T05:11:10.984Z,43.55
2023-04-16T05:13:38.129Z,43.26
2023-04-16T05:16:06.206Z,43.58
2023-04-16T05:18:33.353Z,43.67
2023-04-16T05:21:00.752Z,43.43
2023-04-16T05:23:29.256Z,43.59
2023-04-16T05:25:56.376Z,43.82
2023-04-16T05:28:23.531Z,43.56
2023-04-16T05:30:51.263Z,43.55
2023-04-16T05:33:18.390Z,43.66
2023-04-16T05:35:45.479Z,43.24
2023-04-16T05:38:12.673Z,43.02
2023-04-16T05:40:41.329Z,43.36
2023-04-16T05:43:08.413Z,43.19
2023-04-16T05:45:35.446Z,42.77
2023-04-16T05:48:02.522Z,43.50
2023-04-16T05:50:29.632Z,42.91
2023-04-16T05:52:56.733Z,43.14
2023-04-16T05:55:24.006Z,43.13
2023-04-16T05:57:52.510Z,43.52
2023-04-16T06:00:19.766Z,43.46
2023-04-16T06:02:47.028Z,43.49
2023-04-16T06:05:14.529Z,43.35
2023-04-16T06:07:41.728Z,43.39
2023-04-16T06:10:09.806Z,43.68
2023-04-16T06:12:36.908Z,43.39
2023-04-16T06:15:07.239Z,43.57
2023-04-16T06:17:34.373Z,43.31
2023-04-16T06:20:01.531Z,43.50
2023-04-16T06:22:29.585Z,43.42
2023-04-16T06:24:56.738Z,42.91
2023-04-16T06:27:23.929Z,43.45
2023-04-16T06:29:51.007Z,42.82
2023-04-16T06:32:19.862Z,42.97
2023-04-16T06:34:47.090Z,42.75
2023-04-16T06:37:14.128Z,42.52
2023-04-16T06:39:41.231Z,43.52
2023-04-16T06:42:08.480Z,43.14
2023-04-16T06:44:35.877Z,43.38
2023-04-16T06:47:03.152Z,43.31
2023-04-16T06:49:31.685Z,43.21
2023-04-16T06:51:58.952Z,42.88
2023-04-16T06:54:26.189Z,42.62
2023-04-16T06:56:53.307Z,43.31
2023-04-16T06:59:20.306Z,42.49
2023-04-16T07:01:47.594Z,42.93
2023-04-16T07:04:14.963Z,43.17
2023-04-16T07:06:43.627Z,43.26
2023-04-16T07:09:11.147Z,43.65
2023-04-16T07:11:38.597Z,43.17
2023-04-16T07:14:05.848Z,42.79
2023-04-16T07:16:33.028Z,42.54
2023-04-16T07:19:00.384Z,42.51
2023-04-16T07:21:27.548Z,43.50
2023-04-16T07:23:56.169Z,43.75
2023-04-16T07:26:23.251Z,43.39
2023-04-16T07:28:50.390Z,43.26
2023-04-16T07:31:17.698Z,43.41
2023-04-16T07:33:46.291Z,43.52
2023-04-16T07:36:13.385Z,43.46
2023-04-16T07:38:40.452Z,44.02
2023-04-16T07:41:09.289Z,43.74
2023-04-16T07:43:37.071Z,44.17
2023-04-16T07:46:04.462Z,44.39
2023-04-16T07:48:31.609Z,44.08
2023-04-16T07:50:58.922Z,44.15
2023-04-16T07:53:26.049Z,44.51
2023-04-16T07:55:53.128Z,44.13
2023-04-16T07:58:21.830Z,44.33
2023-04-16T08:00:50.881Z,44.60
2023-04-16T08:03:18.645Z,44.39
2023-04-16T08:05:45.909Z,44.72
2023-04-16T08:08:13.194Z,44.28
2023-04-16T08:10:40.326Z,44.37
2023-04-16T08:13:07.374Z,43.92
2023-04-16T08:15:35.970Z,44.58
2023-04-16T08:18:03.398Z,44.60
2023-04-16T08:20:30.729Z,44.67
2023-04-16T08:22:57.808Z,44.17
2023-04-16T08:25:24.926Z,44.74
2023-04-16T08:27:52.050Z,44.46
2023-04-16T08:30:19.353Z,44.34
2023-04-16T08:32:50.051Z,44.84
2023-04-16T08:35:17.581Z,44.58
2023-04-16T08:37:44.792Z,44.47
2023-04-16T08:40:12.586Z,43.61
2023-04-16T08:42:44.974Z,44.07
2023-04-16T08:45:16.851Z,44.28
2023-04-16T08:47:49.104Z,44.46
2023-04-16T08:50:17.733Z,44.29
2023-04-16T08:52:51.228Z,43.97
2023-04-16T08:55:22.239Z,43.96
2023-04-16T08:57:55.049Z,44.34
2023-04-16T09:00:22.948Z,44.40
2023-04-16T09:02:52.478Z,44.03
2023-04-16T09:05:20.621Z,43.67
2023-04-16T09:07:48.810Z,43.67
2023-04-16T09:10:16.041Z,43.86
2023-04-16T09:12:43.989Z,44.16
2023-04-16T09:15:13.258Z,43.61
2023-04-16T09:17:40.794Z,44.17
2023-04-16T09:20:10.567Z,44.36
2023-04-16T09:22:38.481Z,43.69
2023-04-16T09:25:07.331Z,43.99
2023-04-16T09:27:34.737Z,44.29
2023-04-16T09:30:01.871Z,44.72
2023-04-16T09:32:29.411Z,44.00
2023-04-16T09:34:58.815Z,44.35
2023-04-16T09:37:29.289Z,44.88
2023-04-16T09:39:58.552Z,43.79
2023-04-16T09:42:28.285Z,45.63
2023-04-16T09:44:59.389Z,44.82
2023-04-16T09:47:39.965Z,44.09
2023-04-16T09:50:08.429Z,44.36
2023-04-16T09:52:38.031Z,45.08
2023-04-16T09:55:06.216Z,45.36
2023-04-16T09:57:33.421Z,45.51
2023-04-16T10:00:04.192Z,45.07
2023-04-16T10:02:31.710Z,45.34
2023-04-16T10:05:01.888Z,45.27
2023-04-16T10:07:33.330Z,45.64
2023-04-16T10:10:03.813Z,45.23
2023-04-16T10:12:31.274Z,44.96
2023-04-16T10:14:58.541Z,45.01
2023-04-16T10:17:26.979Z,44.02
2023-04-16T10:19:55.471Z,44.38
2023-04-16T10:22:22.806Z,43.93
2023-04-16T10:24:51.135Z,45.10
2023-04-16T10:27:20.661Z,44.72
2023-04-16T10:29:50.043Z,45.23
2023-04-16T10:32:19.447Z,44.90
2023-04-16T10:34:48.552Z,44.61
2023-04-16T10:37:16.692Z,44.69
2023-04-16T10:39:43.862Z,44.26
2023-04-16T10:42:12.310Z,45.35
2023-04-16T10:44:45.238Z,45.46
2023-04-16T10:47:14.424Z,45.35
2023-04-16T10:49:42.361Z,44.18
2023-04-16T10:52:12.269Z,45.27
2023-04-16T10:54:40.721Z,45.31
2023-04-16T10:57:10.712Z,45.33
2023-04-16T10:59:38.566Z,45.58
2023-04-16T11:02:13.079Z,44.69
2023-04-16T11:04:43.973Z,44.66
2023-04-16T11:07:19.862Z,45.40
2023-04-16T11:09:52.835Z,45.14
2023-04-16T11:12:21.491Z,46.70
2023-04-16T11:14:51.109Z,46.22
2023-04-16T11:17:20.682Z,46.01
2023-04-16T11:19:47.975Z,45.77
2023-04-16T11:22:17.685Z,45.80
2023-04-16T11:24:46.360Z,45.15
2023-04-16T11:27:15.247Z,45.93
2023-04-16T11:29:42.863Z,46.31
2023-04-16T11:32:10.807Z,45.64
2023-04-16T11:34:47.384Z,45.04
2023-04-16T11:37:14.648Z,45.94
2023-04-16T11:39:51.544Z,45.67
2023-04-16T11:42:23.023Z,45.14
2023-04-16T11:44:54.536Z,45.64
2023-04-16T11:47:22.616Z,44.87
2023-04-16T11:49:51.908Z,45.64
2023-04-16T11:52:30.307Z,45.06
2023-04-16T11:54:58.550Z,44.45
2023-04-16T11:57:27.289Z,44.92
2023-04-16T12:00:02.098Z,44.10
2023-04-16T12:02:38.429Z,44.51
2023-04-16T12:05:25.769Z,41.62
2023-04-16T12:07:53.149Z,41.19
2023-04-16T12:10:20.374Z,37.91
2023-04-16T12:12:47.491Z,38.51
2023-04-16T12:15:15.089Z,42.12
2023-04-16T12:17:42.294Z,39.58
2023-04-16T12:20:13.724Z,39.18
2023-04-16T12:22:45.842Z,38.21
2023-04-16T12:25:15.165Z,37.90
2023-04-16T12:27:44.510Z,38.34
2023-04-16T12:30:12.829Z,36.94
2023-04-16T12:32:41.088Z,36.84
2023-04-16T12:35:10.757Z,38.90
2023-04-16T12:37:38.666Z,40.33
2023-04-16T12:40:07.145Z,39.19
2023-04-16T12:42:34.709Z,39.66
2023-04-16T12:45:02.669Z,40.22
2023-04-16T12:47:29.910Z,41.25
2023-04-16T12:49:57.295Z,40.62
2023-04-16T12:52:26.529Z,39.23
2023-04-16T12:54:53.896Z,40.93
2023-04-16T12:57:21.258Z,40.49
2023-04-16T12:59:48.310Z,41.59
2023-04-16T13:02:15.491Z,41.54
2023-04-16T13:04:42.783Z,39.83
2023-04-16T13:07:10.095Z,39.64
2023-04-16T13:09:40.000Z,40.28
2023-04-16T13:12:07.867Z,42.33
2023-04-16T13:14:35.154Z,41.12
2023-04-16T13:17:02.253Z,40.83
2023-04-16T13:19:29.419Z,40.07
2023-04-16T13:21:56.913Z,41.28
2023-04-16T13:24:24.771Z,41.28
2023-04-16T13:26:53.392Z,42.21
2023-04-16T13:29:20.875Z,39.97
2023-04-16T13:31:48.869Z,39.56
2023-04-16T13:34:16.154Z,39.05
2023-04-16T13:36:43.327Z,40.42
2023-04-16T13:39:10.562Z,39.22
2023-04-16T13:41:38.209Z,41.03
2023-04-16T13:44:06.728Z,40.13
2023-04-16T13:46:34.198Z,40.86
2023-04-16T13:49:01.670Z,40.77
2023-04-16T13:51:29.031Z,41.54
2023-04-16T13:53:56.208Z,42.26
2023-04-16T13:56:23.582Z,42.31
2023-04-16T13:58:50.848Z,42.74
2023-04-16T14:01:19.669Z,41.09
2023-04-16T14:03:46.909Z,41.29
2023-04-16T14:06:14.172Z,41.50
2023-04-16T14:08:41.352Z,41.58
2023-04-16T14:11:08.687Z,40.66
2023-04-16T14:13:35.924Z,39.28
2023-04-16T14:16:03.694Z,39.25
2023-04-16T14:18:32.412Z,39.70
2023-04-16T14:20:59.548Z,39.73
2023-04-16T14:23:26.771Z,39.69
2023-04-16T14:25:53.886Z,40.54
2023-04-16T14:28:21.130Z,40.60
2023-04-16T14:30:48.508Z,45.54
2023-04-16T14:33:15.788Z,39.72
2023-04-16T14:35:44.427Z,39.75
2023-04-16T14:38:11.976Z,40.44
2023-04-16T14:40:39.208Z,40.71
2023-04-16T14:43:06.287Z,41.73
2023-04-16T14:45:33.553Z,41.59
2023-04-16T14:48:00.793Z,42.42
2023-04-16T14:50:28.148Z,42.56
2023-04-16T14:52:56.728Z,41.63
2023-04-16T14:55:24.223Z,42.00
2023-04-16T14:57:51.635Z,42.88
2023-04-16T15:00:19.192Z,41.84
2023-04-16T15:02:46.639Z,41.45
2023-04-16T15:05:13.915Z,40.86
2023-04-16T15:07:41.047Z,41.10
2023-04-16T15:10:10.199Z,42.20
2023-04-16T15:12:37.957Z,40.47
2023-04-16T15:15:06.304Z,40.27
2023-04-16T15:17:33.895Z,39.88
2023-04-16T15:20:01.038Z,40.20
2023-04-16T15:22:28.311Z,40.42
2023-04-16T15:24:55.436Z,40.03
2023-04-16T15:27:24.012Z,38.99
2023-04-16T15:29:51.395Z,39.52
2023-04-16T15:32:18.675Z,39.16
2023-04-16T15:34:45.851Z,38.68
2023-04-16T15:37:13.067Z,38.94
2023-04-16T15:39:40.250Z,39.41
2023-04-16T15:42:08.247Z,39.67
2023-04-16T15:44:37.031Z,39.90
2023-04-16T15:47:04.710Z,40.02
2023-04-16T15:49:31.850Z,40.66
2023-04-16T15:51:59.156Z,39.58
2023-04-16T15:54:26.343Z,39.92
2023-04-16T15:56:53.595Z,39.82
2023-04-16T15:59:20.765Z,40.11
2023-04-16T16:01:49.371Z,40.71
2023-04-16T16:04:16.721Z,40.65
2023-04-16T16:06:43.952Z,41.05
2023-04-16T16:09:11.780Z,40.76
2023-04-16T16:11:39.212Z,40.69
2023-04-16T16:14:06.375Z,41.58
2023-04-16T16:16:33.674Z,40.13
2023-04-16T16:19:02.319Z,40.74
2023-04-16T16:21:30.337Z,40.43
2023-04-16T16:23:57.594Z,40.35
2023-04-16T16:26:24.809Z,40.11
2023-04-16T16:28:52.076Z,39.92
2023-04-16T16:31:19.196Z,39.89
2023-04-16T16:33:46.421Z,41.15
2023-04-16T16:36:15.514Z,40.42
2023-04-16T16:38:42.793Z,40.19
2023-04-16T16:41:10.127Z,40.43
2023-04-16T16:43:37.481Z,41.51
2023-04-16T16:46:06.039Z,41.02
2023-04-16T16:48:33.351Z,41.37
2023-04-16T16:51:00.552Z,41.46
2023-04-16T16:53:29.193Z,41.04
2023-04-16T16:55:56.471Z,40.94
2023-04-16T16:58:23.549Z,41.06
2023-04-16T17:00:50.848Z,42.32
2023-04-16T17:03:18.104Z,42.04
2023-04-16T17:05:45.431Z,41.74
2023-04-16T17:08:12.711Z,42.22
2023-04-16T17:10:41.328Z,41.97
2023-04-16T17:13:08.396Z,41.67
2023-04-16T17:15:35.599Z,41.51
2023-04-16T17:18:02.720Z,41.58
2023-04-16T17:20:29.855Z,41.90
2023-04-16T17:22:57.011Z,41.96
2023-04-16T17:25:24.056Z,42.23
2023-04-16T17:27:52.601Z,41.17
2023-04-16T17:30:20.116Z,42.59
2023-04-16T17:32:47.245Z,41.18
2023-04-16T17:35:14.435Z,42.20
2023-04-16T17:37:41.554Z,42.71
2023-04-16T17:40:09.858Z,41.71
2023-04-16T17:42:37.524Z,42.47
2023-04-16T17:45:07.199Z,40.96
2023-04-16T17:47:36.736Z,41.69
2023-04-16T17:50:05.586Z,42.27
2023-04-16T17:52:32.959Z,42.19
2023-04-16T17:55:00.534Z,42.28
2023-04-16T17:57:28.078Z,41.85
2023-04-16T17:59:55.708Z,42.21
2023-04-16T18:02:24.581Z,41.83
2023-04-16T18:04:52.107Z,42.43
2023-04-16T18:07:19.781Z,41.85
2023-04-16T18:09:47.170Z,41.94
2023-04-16T18:12:14.570Z,41.72
2023-04-16T18:14:41.749Z,42.13
2023-04-16T18:17:09.633Z,42.92
2023-04-16T18:19:38.657Z,41.79
2023-04-16T18:22:06.492Z,41.87
2023-04-16T18:24:33.969Z,42.38
2023-04-16T18:27:01.693Z,42.69
2023-04-16T18:29:29.379Z,43.10
2023-04-16T18:31:56.631Z,42.71
2023-04-16T18:34:24.182Z,42.86
2023-04-16T18:36:52.808Z,42.42
2023-04-16T18:39:20.409Z,42.26
2023-04-16T18:41:49.365Z,42.64
2023-04-16T18:44:16.727Z,42.94
2023-04-16T18:46:43.881Z,43.08
2023-04-16T18:49:11.417Z,43.26
2023-04-16T18:51:39.649Z,43.20
2023-04-16T18:54:08.379Z,43.03
2023-04-16T18:56:35.694Z,42.88
2023-04-16T18:59:03.845Z,43.24
2023-04-16T19:01:31.118Z,43.05
2023-04-16T19:03:58.444Z,43.25
2023-04-16T19:06:29.169Z,43.10
2023-04-16T19:08:56.408Z,43.04
2023-04-16T19:11:25.597Z,43.03
2023-04-16T19:13:53.194Z,43.00
2023-04-16T19:16:20.426Z,43.95
2023-04-16T19:18:52.392Z,43.60
2023-04-16T19:21:19.872Z,43.38
2023-04-16T19:23:47.128Z,43.37
2023-04-16T19:26:14.383Z,43.65
2023-04-16T19:28:43.166Z,43.69
2023-04-16T19:31:10.592Z,43.47
2023-04-16T19:33:38.240Z,43.53
2023-04-16T19:36:05.688Z,42.60
2023-04-16T19:38:32.916Z,43.25
2023-04-16T19:41:00.213Z,43.43
2023-04-16T19:43:30.387Z,43.86
2023-04-16T19:45:59.643Z,43.67
2023-04-16T19:48:27.062Z,43.67
2023-04-16T19:50:54.288Z,44.40
2023-04-16T19:53:21.432Z,43.79
2023-04-16T19:55:48.647Z,43.79
2023-04-16T19:58:15.947Z,43.83
2023-04-16T20:00:43.540Z,43.53
2023-04-16T20:03:12.539Z,43.98
2023-04-16T20:05:39.814Z,43.64
2023-04-16T20:08:07.109Z,43.90
2023-04-16T20:10:34.227Z,44.03
2023-04-16T20:13:01.835Z,44.41
2023-04-16T20:15:29.249Z,43.71
2023-04-16T20:17:56.511Z,43.85
2023-04-16T20:20:25.165Z,44.03
2023-04-16T20:22:52.304Z,43.47
2023-04-16T20:25:19.834Z,43.60
2023-04-16T20:27:47.203Z,43.34
2023-04-16T20:30:14.678Z,43.82
2023-04-16T20:32:41.845Z,43.63
2023-04-16T20:35:10.299Z,43.87
2023-04-16T20:37:39.799Z,44.05
2023-04-16T20:40:08.652Z,44.06
2023-04-16T20:42:36.089Z,44.02
2023-04-16T20:45:03.501Z,43.74
2023-04-16T20:47:30.628Z,43.94
2023-04-16T20:49:57.844Z,44.04
2023-04-16T20:52:25.042Z,44.24
2023-04-16T20:54:53.807Z,44.61
2023-04-16T20:57:20.921Z,44.32
2023-04-16T20:59:48.087Z,44.01
2023-04-16T21:02:15.482Z,43.99
2023-04-16T21:04:43.070Z,43.58
2023-04-16T21:07:10.207Z,43.37
2023-04-16T21:09:37.354Z,43.85
2023-04-16T21:12:06.595Z,43.27
2023-04-16T21:14:33.807Z,43.68
2023-04-16T21:17:00.849Z,43.35
2023-04-16T21:19:27.982Z,56.81
2023-04-16T21:21:55.130Z,46.89
2023-04-16T21:24:22.346Z,40.63
2023-04-16T21:26:49.504Z,39.73
2023-04-16T21:29:17.995Z,35.64
2023-04-16T21:31:45.215Z,37.29
2023-04-16T21:34:12.446Z,38.09
2023-04-16T21:36:39.631Z,39.11
2023-04-16T21:39:06.686Z,38.78
2023-04-16T21:41:33.908Z,39.89
2023-04-16T21:44:01.013Z,40.48
2023-04-16T21:46:29.737Z,40.96
2023-04-16T21:48:56.945Z,41.26
2023-04-16T21:51:24.073Z,41.00
2023-04-16T21:53:51.367Z,41.41
2023-04-16T21:56:18.528Z,41.61
2023-04-16T21:58:45.571Z,41.93
2023-04-16T22:01:12.770Z,42.33
2023-04-16T22:03:41.781Z,42.40
2023-04-16T22:06:08.966Z,42.31
2023-04-16T22:08:36.110Z,42.49
2023-04-16T22:11:03.671Z,43.31
2023-04-16T22:13:31.163Z,43.09
2023-04-16T22:15:59.532Z,43.07
2023-04-16T22:18:26.949Z,42.98
2023-04-16T22:20:56.206Z,42.62
2023-04-16T22:23:23.945Z,42.76
2023-04-16T22:25:55.236Z,43.37
2023-04-16T22:28:22.687Z,42.82
2023-04-16T22:30:50.384Z,42.95
2023-04-16T22:33:17.617Z,43.19
2023-04-16T22:35:44.817Z,43.18
2023-04-16T22:38:13.542Z,42.65
2023-04-16T22:40:40.731Z,42.76
2023-04-16T22:43:07.856Z,42.87
2023-04-16T22:45:35.206Z,43.23
2023-04-16T22:48:02.358Z,42.83
2023-04-16T22:50:29.603Z,42.88
2023-04-16T22:52:56.805Z,42.82
2023-04-16T22:55:25.545Z,43.29
2023-04-16T22:57:52.721Z,42.69
2023-04-16T23:00:19.986Z,42.69
2023-04-16T23:02:47.190Z,42.95
2023-04-16T23:05:14.265Z,43.24
2023-04-16T23:07:41.668Z,43.38
2023-04-16T23:10:09.287Z,44.27
2023-04-16T23:12:37.861Z,44.89
2023-04-16T23:15:06.230Z,43.80
2023-04-16T23:17:33.525Z,43.72
2023-04-16T23:20:00.728Z,43.59
2023-04-16T23:22:28.026Z,43.68
2023-04-16T23:24:55.253Z,43.37
2023-04-16T23:27:22.548Z,44.49
2023-04-16T23:29:51.151Z,44.08
2023-04-16T23:32:18.332Z,44.08
2023-04-16T23:34:45.594Z,43.81
2023-04-16T23:37:12.746Z,44.10
2023-04-16T23:39:39.919Z,44.12
2023-04-16T23:42:07.113Z,44.33
2023-04-16T23:44:34.279Z,44.60
2023-04-16T23:47:02.955Z,45.88
2023-04-16T23:49:30.422Z,45.27
2023-04-16T23:51:57.664Z,45.38
2023-04-16T23:54:24.787Z,44.71
2023-04-16T23:56:51.826Z,45.01
2023-04-16T23:59:19.358Z,45.32
